sensor_id;sensor_type;location;lat;lon;timestamp;P1;durP1;ratioP1;P2;durP2;ratioP2
23555;SDS011;11956;53.184;8.578;2022-11-15T00:02:13;42.13;;;28.42;;
23555;SDS011;11956;53.184;8.578;2022-11-15T00:05:36;43.53;;;28.50;;
23555;SDS011;11956;53.184;8.578;2022-11-15T00:08:59;39.80;;;26.52;;
23555;SDS011;11956;53.184;8.578;2022-11-15T00:12:19;41.80;;;27.52;;
23555;SDS011;11956;53.184;8.578;2022-11-15T00:15:39;44.90;;;26.92;;
23555;SDS011;11956;53.184;8.578;2022-11-15T00:18:59;43.33;;;28.58;;
23555;SDS011;11956;53.184;8.578;2022-11-15T00:22:19;43.05;;;27.77;;
23555;SDS011;11956;53.184;8.578;2022-11-15T00:25:38;46.13;;;27.98;;
23555;SDS011;11956;53.184;8.578;2022-11-15T00:28:58;43.17;;;27.25;;
23555;SDS011;11956;53.184;8.578;2022-11-15T00:32:18;46.67;;;27.92;;
23555;SDS011;11956;53.184;8.578;2022-11-15T00:35:37;42.30;;;28.17;;
23555;SDS011;11956;53.184;8.578;2022-11-15T00:38:57;47.08;;;28.67;;
23555;SDS011;11956;53.184;8.578;2022-11-15T00:42:16;41.65;;;28.15;;
23555;SDS011;11956;53.184;8.578;2022-11-15T00:45:36;44.08;;;28.38;;
23555;SDS011;11956;53.184;8.578;2022-11-15T00:48:55;47.80;;;29.25;;
23555;SDS011;11956;53.184;8.578;2022-11-15T00:52:15;42.17;;;27.08;;
23555;SDS011;11956;53.184;8.578;2022-11-15T00:55:35;43.38;;;26.33;;
23555;SDS011;11956;53.184;8.578;2022-11-15T00:58:54;42.20;;;27.45;;
23555;SDS011;11956;53.184;8.578;2022-11-15T01:02:20;42.70;;;27.45;;
23555;SDS011;11956;53.184;8.578;2022-11-15T01:05:39;41.50;;;26.65;;
23555;SDS011;11956;53.184;8.578;2022-11-15T01:08:59;39.78;;;25.88;;
23555;SDS011;11956;53.184;8.578;2022-11-15T01:12:19;41.28;;;27.55;;
23555;SDS011;11956;53.184;8.578;2022-11-15T01:15:39;35.47;;;24.52;;
23555;SDS011;11956;53.184;8.578;2022-11-15T01:18:59;38.65;;;25.92;;
23555;SDS011;11956;53.184;8.578;2022-11-15T01:22:19;43.60;;;26.90;;
23555;SDS011;11956;53.184;8.578;2022-11-15T01:25:39;39.53;;;26.90;;
23555;SDS011;11956;53.184;8.578;2022-11-15T01:28:58;37.35;;;24.90;;
23555;SDS011;11956;53.184;8.578;2022-11-15T01:32:18;38.55;;;26.33;;
23555;SDS011;11956;53.184;8.578;2022-11-15T01:35:38;39.08;;;26.30;;
23555;SDS011;11956;53.184;8.578;2022-11-15T01:38:58;37.05;;;25.75;;
23555;SDS011;11956;53.184;8.578;2022-11-15T01:42:18;39.05;;;26.50;;
23555;SDS011;11956;53.184;8.578;2022-11-15T01:45:37;38.72;;;24.88;;
23555;SDS011;11956;53.184;8.578;2022-11-15T01:49:00;37.00;;;25.00;;
23555;SDS011;11956;53.184;8.578;2022-11-15T01:52:25;37.13;;;24.95;;
23555;SDS011;11956;53.184;8.578;2022-11-15T01:55:47;36.38;;;24.20;;
23555;SDS011;11956;53.184;8.578;2022-11-15T01:59:07;39.67;;;25.33;;
23555;SDS011;11956;53.184;8.578;2022-11-15T02:02:28;38.17;;;25.23;;
23555;SDS011;11956;53.184;8.578;2022-11-15T02:05:48;35.58;;;23.95;;
23555;SDS011;11956;53.184;8.578;2022-11-15T02:09:08;36.50;;;24.15;;
23555;SDS011;11956;53.184;8.578;2022-11-15T02:12:29;36.30;;;23.35;;
23555;SDS011;11956;53.184;8.578;2022-11-15T02:43:04;33.00;;;21.60;;
23555;SDS011;11956;53.184;8.578;2022-11-15T02:47:00;31.77;;;20.52;;
23555;SDS011;11956;53.184;8.578;2022-11-15T02:50:32;32.08;;;19.75;;
23555;SDS011;11956;53.184;8.578;2022-11-15T02:53:52;29.05;;;19.75;;
23555;SDS011;11956;53.184;8.578;2022-11-15T02:57:13;32.20;;;20.63;;
23555;SDS011;11956;53.184;8.578;2022-11-15T03:00:40;28.10;;;20.00;;
23555;SDS011;11956;53.184;8.578;2022-11-15T03:04:16;30.38;;;20.38;;
23555;SDS011;11956;53.184;8.578;2022-11-15T03:11:44;29.08;;;19.10;;
23555;SDS011;11956;53.184;8.578;2022-11-15T03:22:47;30.20;;;18.00;;
23555;SDS011;11956;53.184;8.578;2022-11-15T03:26:09;26.38;;;18.60;;
23555;SDS011;11956;53.184;8.578;2022-11-15T03:32:56;29.55;;;19.85;;
23555;SDS011;11956;53.184;8.578;2022-11-15T03:36:17;34.58;;;21.15;;
23555;SDS011;11956;53.184;8.578;2022-11-15T03:39:37;32.33;;;20.08;;
23555;SDS011;11956;53.184;8.578;2022-11-15T03:49:53;38.03;;;21.58;;
23555;SDS011;11956;53.184;8.578;2022-11-15T03:53:19;32.75;;;20.90;;
23555;SDS011;11956;53.184;8.578;2022-11-15T03:56:39;36.05;;;21.98;;
23555;SDS011;11956;53.184;8.578;2022-11-15T03:59:58;34.83;;;21.27;;
23555;SDS011;11956;53.184;8.578;2022-11-15T04:03:18;36.95;;;20.90;;
23555;SDS011;11956;53.184;8.578;2022-11-15T04:06:37;34.55;;;20.85;;
23555;SDS011;11956;53.184;8.578;2022-11-15T04:09:57;34.28;;;21.42;;
23555;SDS011;11956;53.184;8.578;2022-11-15T04:13:22;36.75;;;21.20;;
23555;SDS011;11956;53.184;8.578;2022-11-15T04:16:41;35.08;;;19.85;;
23555;SDS011;11956;53.184;8.578;2022-11-15T04:20:02;37.65;;;21.38;;
23555;SDS011;11956;53.184;8.578;2022-11-15T04:23:42;28.85;;;19.13;;
23555;SDS011;11956;53.184;8.578;2022-11-15T04:27:20;33.00;;;18.58;;
23555;SDS011;11956;53.184;8.578;2022-11-15T04:30:40;31.90;;;18.55;;
23555;SDS011;11956;53.184;8.578;2022-11-15T04:33:59;29.50;;;17.45;;
23555;SDS011;11956;53.184;8.578;2022-11-15T04:37:19;28.50;;;18.10;;
23555;SDS011;11956;53.184;8.578;2022-11-15T04:40:38;31.00;;;18.25;;
23555;SDS011;11956;53.184;8.578;2022-11-15T04:43:58;25.35;;;16.77;;
23555;SDS011;11956;53.184;8.578;2022-11-15T04:47:18;24.30;;;17.10;;
23555;SDS011;11956;53.184;8.578;2022-11-15T04:50:38;26.20;;;16.92;;
23555;SDS011;11956;53.184;8.578;2022-11-15T04:53:57;22.05;;;15.40;;
23555;SDS011;11956;53.184;8.578;2022-11-15T04:57:17;23.13;;;14.55;;
23555;SDS011;11956;53.184;8.578;2022-11-15T05:00:37;22.40;;;15.63;;
23555;SDS011;11956;53.184;8.578;2022-11-15T05:03:56;23.08;;;15.25;;
23555;SDS011;11956;53.184;8.578;2022-11-15T05:07:34;23.48;;;15.57;;
23555;SDS011;11956;53.184;8.578;2022-11-15T05:10:54;21.58;;;15.35;;
23555;SDS011;11956;53.184;8.578;2022-11-15T05:14:13;22.80;;;14.68;;
23555;SDS011;11956;53.184;8.578;2022-11-15T05:17:33;22.02;;;15.38;;
23555;SDS011;11956;53.184;8.578;2022-11-15T05:20:53;21.27;;;15.00;;
23555;SDS011;11956;53.184;8.578;2022-11-15T05:24:13;22.55;;;15.02;;
23555;SDS011;11956;53.184;8.578;2022-11-15T05:27:33;21.67;;;14.95;;
23555;SDS011;11956;53.184;8.578;2022-11-15T05:30:53;22.10;;;14.70;;
23555;SDS011;11956;53.184;8.578;2022-11-15T05:34:19;20.65;;;14.07;;
23555;SDS011;11956;53.184;8.578;2022-11-15T05:37:41;20.33;;;14.00;;
23555;SDS011;11956;53.184;8.578;2022-11-15T05:41:00;21.52;;;14.27;;
23555;SDS011;11956;53.184;8.578;2022-11-15T05:44:22;23.23;;;14.50;;
23555;SDS011;11956;53.184;8.578;2022-11-15T05:47:44;22.58;;;14.55;;
23555;SDS011;11956;53.184;8.578;2022-11-15T05:51:04;18.50;;;13.73;;
23555;SDS011;11956;53.184;8.578;2022-11-15T05:54:25;20.15;;;14.25;;
23555;SDS011;11956;53.184;8.578;2022-11-15T05:57:44;23.48;;;14.75;;
23555;SDS011;11956;53.184;8.578;2022-11-15T06:01:04;20.95;;;14.23;;
23555;SDS011;11956;53.184;8.578;2022-11-15T06:04:24;24.08;;;14.85;;
23555;SDS011;11956;53.184;8.578;2022-11-15T06:07:43;20.05;;;14.10;;
23555;SDS011;11956;53.184;8.578;2022-11-15T06:11:06;22.27;;;14.90;;
23555;SDS011;11956;53.184;8.578;2022-11-15T06:14:26;19.83;;;14.07;;
23555;SDS011;11956;53.184;8.578;2022-11-15T06:17:45;19.35;;;13.65;;
23555;SDS011;11956;53.184;8.578;2022-11-15T06:21:05;23.83;;;14.95;;
23555;SDS011;11956;53.184;8.578;2022-11-15T06:24:25;25.60;;;14.52;;
23555;SDS011;11956;53.184;8.578;2022-11-15T06:27:50;24.35;;;15.50;;
23555;SDS011;11956;53.184;8.578;2022-11-15T06:31:11;19.08;;;13.93;;
23555;SDS011;11956;53.184;8.578;2022-11-15T06:34:31;20.58;;;14.52;;
23555;SDS011;11956;53.184;8.578;2022-11-15T06:37:50;22.33;;;14.32;;
23555;SDS011;11956;53.184;8.578;2022-11-15T06:41:10;24.13;;;14.88;;
23555;SDS011;11956;53.184;8.578;2022-11-15T06:44:32;20.08;;;14.02;;
23555;SDS011;11956;53.184;8.578;2022-11-15T06:47:51;19.45;;;13.77;;
23555;SDS011;11956;53.184;8.578;2022-11-15T06:51:11;21.90;;;13.95;;
23555;SDS011;11956;53.184;8.578;2022-11-15T06:54:30;17.73;;;13.55;;
23555;SDS011;11956;53.184;8.578;2022-11-15T06:57:51;22.45;;;14.77;;
23555;SDS011;11956;53.184;8.578;2022-11-15T07:01:11;22.15;;;14.85;;
23555;SDS011;11956;53.184;8.578;2022-11-15T07:04:31;18.17;;;13.43;;
23555;SDS011;11956;53.184;8.578;2022-11-15T07:07:51;19.23;;;14.40;;
23555;SDS011;11956;53.184;8.578;2022-11-15T07:11:12;20.33;;;14.40;;
23555;SDS011;11956;53.184;8.578;2022-11-15T07:14:32;24.65;;;16.42;;
23555;SDS011;11956;53.184;8.578;2022-11-15T07:17:52;23.10;;;14.50;;
23555;SDS011;11956;53.184;8.578;2022-11-15T07:21:11;18.48;;;13.20;;
23555;SDS011;11956;53.184;8.578;2022-11-15T07:24:31;17.75;;;13.35;;
23555;SDS011;11956;53.184;8.578;2022-11-15T07:27:54;21.88;;;14.07;;
23555;SDS011;11956;53.184;8.578;2022-11-15T07:31:17;20.40;;;14.02;;
23555;SDS011;11956;53.184;8.578;2022-11-15T07:34:36;20.98;;;14.38;;
23555;SDS011;11956;53.184;8.578;2022-11-15T07:37:56;18.13;;;13.00;;
23555;SDS011;11956;53.184;8.578;2022-11-15T07:41:18;21.23;;;13.88;;
23555;SDS011;11956;53.184;8.578;2022-11-15T07:44:38;20.23;;;13.75;;
23555;SDS011;11956;53.184;8.578;2022-11-15T07:47:57;18.45;;;12.65;;
23555;SDS011;11956;53.184;8.578;2022-11-15T07:51:17;15.55;;;11.88;;
23555;SDS011;11956;53.184;8.578;2022-11-15T07:54:37;19.08;;;13.05;;
23555;SDS011;11956;53.184;8.578;2022-11-15T07:58:04;15.30;;;12.45;;
23555;SDS011;11956;53.184;8.578;2022-11-15T08:01:26;19.08;;;11.95;;
23555;SDS011;11956;53.184;8.578;2022-11-15T08:04:45;16.85;;;12.63;;
23555;SDS011;11956;53.184;8.578;2022-11-15T08:08:06;14.77;;;11.68;;
23555;SDS011;11956;53.184;8.578;2022-11-15T08:11:27;16.67;;;11.88;;
23555;SDS011;11956;53.184;8.578;2022-11-15T08:14:47;15.93;;;12.55;;
23555;SDS011;11956;53.184;8.578;2022-11-15T08:18:09;20.25;;;13.32;;
23555;SDS011;11956;53.184;8.578;2022-11-15T08:21:32;17.90;;;12.75;;
23555;SDS011;11956;53.184;8.578;2022-11-15T08:24:52;17.67;;;13.18;;
23555;SDS011;11956;53.184;8.578;2022-11-15T08:28:11;19.63;;;13.27;;
23555;SDS011;11956;53.184;8.578;2022-11-15T08:31:31;17.08;;;12.52;;
23555;SDS011;11956;53.184;8.578;2022-11-15T08:34:51;16.20;;;13.00;;
23555;SDS011;11956;53.184;8.578;2022-11-15T08:38:10;17.25;;;12.40;;
23555;SDS011;11956;53.184;8.578;2022-11-15T08:41:34;15.80;;;12.90;;
23555;SDS011;11956;53.184;8.578;2022-11-15T08:44:55;17.10;;;12.73;;
23555;SDS011;11956;53.184;8.578;2022-11-15T08:48:15;18.13;;;13.85;;
23555;SDS011;11956;53.184;8.578;2022-11-15T08:51:34;20.38;;;13.40;;
23555;SDS011;11956;53.184;8.578;2022-11-15T08:54:54;18.27;;;12.68;;
23555;SDS011;11956;53.184;8.578;2022-11-15T08:58:14;19.73;;;13.50;;
23555;SDS011;11956;53.184;8.578;2022-11-15T09:01:33;18.23;;;13.25;;
23555;SDS011;11956;53.184;8.578;2022-11-15T09:04:53;18.85;;;13.00;;
23555;SDS011;11956;53.184;8.578;2022-11-15T09:08:12;17.85;;;13.15;;
23555;SDS011;11956;53.184;8.578;2022-11-15T09:11:32;20.52;;;13.05;;
23555;SDS011;11956;53.184;8.578;2022-11-15T09:14:52;17.08;;;12.73;;
23555;SDS011;11956;53.184;8.578;2022-11-15T09:18:12;17.60;;;13.10;;
23555;SDS011;11956;53.184;8.578;2022-11-15T09:21:32;19.23;;;12.43;;
23555;SDS011;11956;53.184;8.578;2022-11-15T09:24:51;18.67;;;12.60;;
23555;SDS011;11956;53.184;8.578;2022-11-15T09:28:11;17.70;;;12.80;;
23555;SDS011;11956;53.184;8.578;2022-11-15T09:31:31;39.80;;;21.13;;
23555;SDS011;11956;53.184;8.578;2022-11-15T09:34:50;18.80;;;12.15;;
23555;SDS011;11956;53.184;8.578;2022-11-15T09:38:10;16.17;;;11.23;;
23555;SDS011;11956;53.184;8.578;2022-11-15T09:49:29;15.15;;;11.50;;
23555;SDS011;11956;53.184;8.578;2022-11-15T09:52:50;13.48;;;10.70;;
23555;SDS011;11956;53.184;8.578;2022-11-15T09:56:01;16.35;;;11.45;;
23555;SDS011;11956;53.184;8.578;2022-11-15T10:06:27;14.73;;;10.27;;
23555;SDS011;11956;53.184;8.578;2022-11-15T10:09:30;13.07;;;9.25;;
23555;SDS011;11956;53.184;8.578;2022-11-15T10:12:46;14.57;;;9.63;;
23555;SDS011;11956;53.184;8.578;2022-11-15T10:15:50;11.75;;;9.30;;
23555;SDS011;11956;53.184;8.578;2022-11-15T10:22:48;11.88;;;8.70;;
23555;SDS011;11956;53.184;8.578;2022-11-15T10:25:54;14.25;;;8.85;;
23555;SDS011;11956;53.184;8.578;2022-11-15T10:29:00;13.57;;;9.05;;
23555;SDS011;11956;53.184;8.578;2022-11-15T10:32:01;16.98;;;9.38;;
23555;SDS011;11956;53.184;8.578;2022-11-15T10:35:15;14.05;;;9.07;;
23555;SDS011;11956;53.184;8.578;2022-11-15T10:41:49;12.93;;;8.75;;
23555;SDS011;11956;53.184;8.578;2022-11-15T10:44:50;12.10;;;9.23;;
23555;SDS011;11956;53.184;8.578;2022-11-15T10:47:51;12.68;;;9.20;;
23555;SDS011;11956;53.184;8.578;2022-11-15T10:50:52;10.20;;;8.80;;
23555;SDS011;11956;53.184;8.578;2022-11-15T10:53:56;12.30;;;8.57;;
23555;SDS011;11956;53.184;8.578;2022-11-15T10:57:00;13.52;;;8.98;;
23555;SDS011;11956;53.184;8.578;2022-11-15T11:03:27;12.38;;;8.27;;
23555;SDS011;11956;53.184;8.578;2022-11-15T11:09:58;12.07;;;7.95;;
23555;SDS011;11956;53.184;8.578;2022-11-15T11:13:25;11.80;;;7.75;;
23555;SDS011;11956;53.184;8.578;2022-11-15T11:16:36;73.50;;;15.38;;
23555;SDS011;11956;53.184;8.578;2022-11-15T11:26:49;17.85;;;8.73;;
23555;SDS011;11956;53.184;8.578;2022-11-15T11:30:08;15.13;;;7.35;;
23555;SDS011;11956;53.184;8.578;2022-11-15T11:33:17;12.80;;;8.00;;
23555;SDS011;11956;53.184;8.578;2022-11-15T11:47:11;9.38;;;6.00;;
23555;SDS011;11956;53.184;8.578;2022-11-15T11:50:28;6.72;;;5.82;;
23555;SDS011;11956;53.184;8.578;2022-11-15T11:53:36;13.00;;;8.43;;
23555;SDS011;11956;53.184;8.578;2022-11-15T11:56:43;8.55;;;7.18;;
23555;SDS011;11956;53.184;8.578;2022-11-15T11:59:50;14.73;;;9.00;;
23555;SDS011;11956;53.184;8.578;2022-11-15T12:06:27;7.00;;;5.95;;
23555;SDS011;11956;53.184;8.578;2022-11-15T12:09:57;6.90;;;5.25;;
23555;SDS011;11956;53.184;8.578;2022-11-15T12:16:28;5.65;;;4.95;;
23555;SDS011;11956;53.184;8.578;2022-11-15T12:19:32;6.30;;;4.78;;
23555;SDS011;11956;53.184;8.578;2022-11-15T12:28:57;5.72;;;4.45;;
23555;SDS011;11956;53.184;8.578;2022-11-15T12:35:40;5.85;;;4.53;;
23555;SDS011;11956;53.184;8.578;2022-11-15T12:44:56;4.80;;;4.00;;
23555;SDS011;11956;53.184;8.578;2022-11-15T12:54:56;5.38;;;3.45;;
23555;SDS011;11956;53.184;8.578;2022-11-15T12:58:24;5.10;;;3.40;;
23555;SDS011;11956;53.184;8.578;2022-11-15T13:04:35;4.75;;;3.25;;
23555;SDS011;11956;53.184;8.578;2022-11-15T13:10:39;2.80;;;2.55;;
23555;SDS011;11956;53.184;8.578;2022-11-15T13:13:43;5.60;;;2.80;;
23555;SDS011;11956;53.184;8.578;2022-11-15T13:16:45;4.97;;;2.70;;
23555;SDS011;11956;53.184;8.578;2022-11-15T13:19:49;4.32;;;2.80;;
23555;SDS011;11956;53.184;8.578;2022-11-15T13:23:14;4.28;;;2.70;;
23555;SDS011;11956;53.184;8.578;2022-11-15T13:29:18;3.45;;;2.53;;
23555;SDS011;11956;53.184;8.578;2022-11-15T13:32:20;3.17;;;2.28;;
23555;SDS011;11956;53.184;8.578;2022-11-15T13:35:23;3.50;;;2.00;;
23555;SDS011;11956;53.184;8.578;2022-11-15T13:38:29;2.60;;;2.17;;
23555;SDS011;11956;53.184;8.578;2022-11-15T13:44:36;4.60;;;2.13;;
23555;SDS011;11956;53.184;8.578;2022-11-15T13:47:37;3.85;;;1.90;;
23555;SDS011;11956;53.184;8.578;2022-11-15T13:50:38;4.35;;;1.92;;
23555;SDS011;11956;53.184;8.578;2022-11-15T13:53:40;2.78;;;1.65;;
23555;SDS011;11956;53.184;8.578;2022-11-15T13:56:52;2.15;;;1.70;;
23555;SDS011;11956;53.184;8.578;2022-11-15T13:59:59;4.13;;;1.75;;
23555;SDS011;11956;53.184;8.578;2022-11-15T14:06:27;2.00;;;1.60;;
23555;SDS011;11956;53.184;8.578;2022-11-15T14:12:49;3.58;;;1.42;;
23555;SDS011;11956;53.184;8.578;2022-11-15T14:15:51;3.45;;;1.20;;
23555;SDS011;11956;53.184;8.578;2022-11-15T14:18:52;2.67;;;1.20;;
23555;SDS011;11956;53.184;8.578;2022-11-15T14:25:27;2.15;;;1.42;;
23555;SDS011;11956;53.184;8.578;2022-11-15T14:28:34;3.45;;;1.60;;
23555;SDS011;11956;53.184;8.578;2022-11-15T14:31:38;2.42;;;1.70;;
23555;SDS011;11956;53.184;8.578;2022-11-15T14:34:41;2.53;;;1.60;;
23555;SDS011;11956;53.184;8.578;2022-11-15T14:37:42;2.05;;;1.27;;
23555;SDS011;11956;53.184;8.578;2022-11-15T14:40:43;3.05;;;1.40;;
23555;SDS011;11956;53.184;8.578;2022-11-15T14:43:45;3.05;;;1.83;;
23555;SDS011;11956;53.184;8.578;2022-11-15T14:46:46;3.67;;;2.20;;
23555;SDS011;11956;53.184;8.578;2022-11-15T14:49:48;8.35;;;4.38;;
23555;SDS011;11956;53.184;8.578;2022-11-15T14:52:49;6.90;;;4.30;;
23555;SDS011;11956;53.184;8.578;2022-11-15T14:55:49;5.22;;;3.67;;
23555;SDS011;11956;53.184;8.578;2022-11-15T14:58:50;7.55;;;4.45;;
23555;SDS011;11956;53.184;8.578;2022-11-15T15:01:51;5.82;;;3.42;;
23555;SDS011;11956;53.184;8.578;2022-11-15T15:04:52;5.10;;;3.95;;
23555;SDS011;11956;53.184;8.578;2022-11-15T15:07:54;4.78;;;3.47;;
23555;SDS011;11956;53.184;8.578;2022-11-15T15:10:55;4.78;;;3.15;;
23555;SDS011;11956;53.184;8.578;2022-11-15T15:13:55;4.60;;;3.60;;
23555;SDS011;11956;53.184;8.578;2022-11-15T15:16:58;4.75;;;2.70;;
23555;SDS011;11956;53.184;8.578;2022-11-15T15:19:59;6.18;;;3.00;;
23555;SDS011;11956;53.184;8.578;2022-11-15T15:23:00;4.70;;;2.92;;
23555;SDS011;11956;53.184;8.578;2022-11-15T15:26:00;5.25;;;3.08;;
23555;SDS011;11956;53.184;8.578;2022-11-15T15:29:01;5.82;;;2.85;;
23555;SDS011;11956;53.184;8.578;2022-11-15T15:32:02;5.03;;;2.40;;
23555;SDS011;11956;53.184;8.578;2022-11-15T15:35:04;4.13;;;2.55;;
23555;SDS011;11956;53.184;8.578;2022-11-15T15:38:05;4.57;;;2.20;;
23555;SDS011;11956;53.184;8.578;2022-11-15T15:41:15;2.65;;;2.10;;
23555;SDS011;11956;53.184;8.578;2022-11-15T15:44:16;3.55;;;2.55;;
23555;SDS011;11956;53.184;8.578;2022-11-15T15:50:26;3.97;;;2.13;;
23555;SDS011;11956;53.184;8.578;2022-11-15T15:53:30;5.05;;;2.75;;
23555;SDS011;11956;53.184;8.578;2022-11-15T15:56:31;3.92;;;1.95;;
23555;SDS011;11956;53.184;8.578;2022-11-15T15:59:32;3.22;;;2.10;;
23555;SDS011;11956;53.184;8.578;2022-11-15T16:02:33;3.22;;;1.90;;
23555;SDS011;11956;53.184;8.578;2022-11-15T16:05:34;5.65;;;3.40;;
23555;SDS011;11956;53.184;8.578;2022-11-15T16:08:35;6.63;;;3.33;;
23555;SDS011;11956;53.184;8.578;2022-11-15T16:11:37;4.82;;;3.42;;
23555;SDS011;11956;53.184;8.578;2022-11-15T16:14:38;8.55;;;3.78;;
23555;SDS011;11956;53.184;8.578;2022-11-15T16:17:40;8.13;;;3.63;;
23555;SDS011;11956;53.184;8.578;2022-11-15T16:20:48;6.43;;;4.13;;
23555;SDS011;11956;53.184;8.578;2022-11-15T16:26:53;7.88;;;4.15;;
23555;SDS011;11956;53.184;8.578;2022-11-15T16:29:53;9.63;;;5.20;;
23555;SDS011;11956;53.184;8.578;2022-11-15T16:32:54;9.98;;;4.80;;
23555;SDS011;11956;53.184;8.578;2022-11-15T16:35:55;7.22;;;4.47;;
23555;SDS011;11956;53.184;8.578;2022-11-15T16:38:56;11.90;;;4.78;;
23555;SDS011;11956;53.184;8.578;2022-11-15T16:41:58;8.40;;;5.43;;
23555;SDS011;11956;53.184;8.578;2022-11-15T16:44:59;7.82;;;5.40;;
23555;SDS011;11956;53.184;8.578;2022-11-15T16:48:00;11.23;;;5.60;;
23555;SDS011;11956;53.184;8.578;2022-11-15T16:51:01;11.40;;;5.50;;
23555;SDS011;11956;53.184;8.578;2022-11-15T16:54:04;7.57;;;4.65;;
23555;SDS011;11956;53.184;8.578;2022-11-15T16:57:04;10.65;;;5.30;;
23555;SDS011;11956;53.184;8.578;2022-11-15T17:00:06;6.80;;;4.70;;
23555;SDS011;11956;53.184;8.578;2022-11-15T17:03:11;9.60;;;4.85;;
23555;SDS011;11956;53.184;8.578;2022-11-15T17:06:12;8.70;;;5.35;;
23555;SDS011;11956;53.184;8.578;2022-11-15T17:09:16;12.77;;;6.22;;
23555;SDS011;11956;53.184;8.578;2022-11-15T17:12:22;11.13;;;6.07;;
23555;SDS011;11956;53.184;8.578;2022-11-15T17:15:23;12.48;;;6.22;;
23555;SDS011;11956;53.184;8.578;2022-11-15T17:18:24;9.82;;;6.10;;
23555;SDS011;11956;53.184;8.578;2022-11-15T17:21:25;11.93;;;6.22;;
23555;SDS011;11956;53.184;8.578;2022-11-15T17:24:27;11.52;;;6.78;;
23555;SDS011;11956;53.184;8.578;2022-11-15T17:27:29;14.32;;;6.80;;
23555;SDS011;11956;53.184;8.578;2022-11-15T17:30:30;10.65;;;5.88;;
23555;SDS011;11956;53.184;8.578;2022-11-15T17:33:31;8.63;;;5.32;;
23555;SDS011;11956;53.184;8.578;2022-11-15T17:36:32;10.35;;;6.13;;
23555;SDS011;11956;53.184;8.578;2022-11-15T17:39:34;11.90;;;6.13;;
23555;SDS011;11956;53.184;8.578;2022-11-15T17:42:35;10.30;;;5.82;;
23555;SDS011;11956;53.184;8.578;2022-11-15T17:45:39;15.35;;;6.28;;
23555;SDS011;11956;53.184;8.578;2022-11-15T17:48:41;10.20;;;6.53;;
23555;SDS011;11956;53.184;8.578;2022-11-15T17:51:43;12.70;;;6.55;;
23555;SDS011;11956;53.184;8.578;2022-11-15T17:54:44;14.55;;;6.13;;
23555;SDS011;11956;53.184;8.578;2022-11-15T17:57:45;8.85;;;5.57;;
23555;SDS011;11956;53.184;8.578;2022-11-15T18:00:46;11.40;;;6.25;;
23555;SDS011;11956;53.184;8.578;2022-11-15T18:03:47;8.25;;;5.28;;
23555;SDS011;11956;53.184;8.578;2022-11-15T18:06:49;9.95;;;5.13;;
23555;SDS011;11956;53.184;8.578;2022-11-15T18:09:50;10.52;;;5.65;;
23555;SDS011;11956;53.184;8.578;2022-11-15T18:12:50;8.85;;;4.90;;
23555;SDS011;11956;53.184;8.578;2022-11-15T18:15:54;10.63;;;5.38;;
23555;SDS011;11956;53.184;8.578;2022-11-15T18:18:55;9.30;;;5.22;;
23555;SDS011;11956;53.184;8.578;2022-11-15T18:21:57;7.03;;;4.63;;
23555;SDS011;11956;53.184;8.578;2022-11-15T18:24:59;10.07;;;4.78;;
23555;SDS011;11956;53.184;8.578;2022-11-15T18:28:00;6.38;;;4.25;;
23555;SDS011;11956;53.184;8.578;2022-11-15T18:31:02;8.27;;;4.57;;
23555;SDS011;11956;53.184;8.578;2022-11-15T18:34:10;8.30;;;4.50;;
23555;SDS011;11956;53.184;8.578;2022-11-15T18:37:11;9.38;;;5.05;;
23555;SDS011;11956;53.184;8.578;2022-11-15T18:40:12;9.27;;;4.18;;
23555;SDS011;11956;53.184;8.578;2022-11-15T18:43:13;8.50;;;4.50;;
23555;SDS011;11956;53.184;8.578;2022-11-15T18:46:15;9.15;;;4.70;;
23555;SDS011;11956;53.184;8.578;2022-11-15T18:49:20;10.65;;;4.68;;
23555;SDS011;11956;53.184;8.578;2022-11-15T18:52:21;12.40;;;4.40;;
23555;SDS011;11956;53.184;8.578;2022-11-15T18:55:22;9.18;;;4.80;;
23555;SDS011;11956;53.184;8.578;2022-11-15T18:58:23;8.23;;;4.80;;
23555;SDS011;11956;53.184;8.578;2022-11-15T19:01:29;10.13;;;5.15;;
23555;SDS011;11956;53.184;8.578;2022-11-15T19:04:38;8.25;;;4.50;;
23555;SDS011;11956;53.184;8.578;2022-11-15T19:07:39;8.43;;;4.47;;
23555;SDS011;11956;53.184;8.578;2022-11-15T19:10:40;7.18;;;4.38;;
23555;SDS011;11956;53.184;8.578;2022-11-15T19:13:41;7.00;;;4.13;;
23555;SDS011;11956;53.184;8.578;2022-11-15T19:16:44;8.63;;;4.65;;
23555;SDS011;11956;53.184;8.578;2022-11-15T19:19:51;5.72;;;4.00;;
23555;SDS011;11956;53.184;8.578;2022-11-15T19:22:52;6.65;;;3.97;;
23555;SDS011;11956;53.184;8.578;2022-11-15T19:25:53;9.57;;;4.28;;
23555;SDS011;11956;53.184;8.578;2022-11-15T19:28:56;8.07;;;4.63;;
23555;SDS011;11956;53.184;8.578;2022-11-15T19:31:59;8.00;;;4.15;;
23555;SDS011;11956;53.184;8.578;2022-11-15T19:35:01;10.50;;;4.57;;
23555;SDS011;11956;53.184;8.578;2022-11-15T19:38:02;7.45;;;4.30;;
23555;SDS011;11956;53.184;8.578;2022-11-15T19:41:03;9.43;;;4.93;;
23555;SDS011;11956;53.184;8.578;2022-11-15T19:44:12;9.18;;;5.07;;
23555;SDS011;11956;53.184;8.578;2022-11-15T19:47:13;11.48;;;5.65;;
23555;SDS011;11956;53.184;8.578;2022-11-15T19:50:14;13.20;;;6.10;;
23555;SDS011;11956;53.184;8.578;2022-11-15T19:53:16;16.50;;;6.65;;
23555;SDS011;11956;53.184;8.578;2022-11-15T19:56:17;16.95;;;6.90;;
23555;SDS011;11956;53.184;8.578;2022-11-15T19:59:20;16.03;;;7.40;;
23555;SDS011;11956;53.184;8.578;2022-11-15T20:02:21;15.52;;;7.85;;
23555;SDS011;11956;53.184;8.578;2022-11-15T20:05:22;16.15;;;6.95;;
23555;SDS011;11956;53.184;8.578;2022-11-15T20:08:23;18.45;;;7.07;;
23555;SDS011;11956;53.184;8.578;2022-11-15T20:11:24;12.95;;;7.20;;
23555;SDS011;11956;53.184;8.578;2022-11-15T20:14:25;13.55;;;7.45;;
23555;SDS011;11956;53.184;8.578;2022-11-15T20:17:28;12.77;;;7.10;;
23555;SDS011;11956;53.184;8.578;2022-11-15T20:20:29;12.68;;;6.63;;
23555;SDS011;11956;53.184;8.578;2022-11-15T20:23:30;15.45;;;6.57;;
23555;SDS011;11956;53.184;8.578;2022-11-15T20:26:31;13.63;;;7.50;;
23555;SDS011;11956;53.184;8.578;2022-11-15T20:29:31;10.15;;;6.22;;
23555;SDS011;11956;53.184;8.578;2022-11-15T20:32:32;11.30;;;6.43;;
23555;SDS011;11956;53.184;8.578;2022-11-15T20:35:33;10.60;;;6.25;;
23555;SDS011;11956;53.184;8.578;2022-11-15T20:38:34;10.55;;;6.13;;
23555;SDS011;11956;53.184;8.578;2022-11-15T20:41:36;9.77;;;6.00;;
23555;SDS011;11956;53.184;8.578;2022-11-15T20:44:37;10.63;;;6.60;;
23555;SDS011;11956;53.184;8.578;2022-11-15T20:47:38;8.90;;;5.90;;
23555;SDS011;11956;53.184;8.578;2022-11-15T20:50:39;9.57;;;5.93;;
23555;SDS011;11956;53.184;8.578;2022-11-15T20:53:42;13.10;;;6.80;;
23555;SDS011;11956;53.184;8.578;2022-11-15T20:56:45;14.65;;;7.13;;
23555;SDS011;11956;53.184;8.578;2022-11-15T20:59:46;10.52;;;7.03;;
23555;SDS011;11956;53.184;8.578;2022-11-15T21:02:47;13.32;;;6.50;;
23555;SDS011;11956;53.184;8.578;2022-11-15T21:05:47;11.68;;;6.78;;
23555;SDS011;11956;53.184;8.578;2022-11-15T21:08:49;11.10;;;6.22;;
23555;SDS011;11956;53.184;8.578;2022-11-15T21:12:12;11.80;;;5.95;;
23555;SDS011;11956;53.184;8.578;2022-11-15T21:15:14;12.27;;;6.45;;
23555;SDS011;11956;53.184;8.578;2022-11-15T21:18:15;12.00;;;6.53;;
23555;SDS011;11956;53.184;8.578;2022-11-15T21:21:16;13.95;;;6.50;;
23555;SDS011;11956;53.184;8.578;2022-11-15T21:24:17;18.60;;;7.15;;
23555;SDS011;11956;53.184;8.578;2022-11-15T21:27:19;15.65;;;7.18;;
23555;SDS011;11956;53.184;8.578;2022-11-15T21:30:20;14.35;;;7.43;;